ADDS METAR Data INFO
IDs: Format: Raw Decoded Include TAF

Data at: 1414 UTC 12 Dec 2017

KOEB 121355Z AUTO 32009KT 10SM SCT060 M07/M13 A2991 RMK AO2 T10751133
KOEB 121335Z AUTO 31008KT 10SM BKN060 M08/M13 A2990 RMK AO2 T10761134
KOEB 121315Z AUTO 30006KT 10SM CLR M08/M14 A2990 RMK AO2 T10811138
KOEB 121255Z AUTO 32007KT 10SM CLR M08/M13 A2989 RMK AO2 T10801135
KOEB 121235Z AUTO 31007KT 10SM CLR M08/M13 A2988 RMK AO2 T10771133
KOEB 121215Z AUTO 32008G16KT 10SM CLR M07/M13 A2988 RMK AO2 T10711132
KOEB 121155Z AUTO 33009G16KT 10SM CLR M07/M13 A2986 RMK AO2 T10711130 11002 21071
KOEB 121135Z AUTO 33012G21KT 10SM CLR M07/M13 A2985 RMK AO2 T10671129
KOEB 121115Z AUTO 32009G15KT 10SM CLR M06/M12 A2984 RMK AO2 T10651125
KOEB 121055Z AUTO 33010G18KT 10SM CLR M06/M12 A2984 RMK AO2 T10601125
KOEB 121035Z AUTO 33015G23KT 10SM CLR M05/M12 A2983 RMK AO2 T10551124
KOEB 121015Z AUTO 33014G20KT 10SM CLR M05/M12 A2981 RMK AO2 T10511120
KOEB 120955Z AUTO 32011G19KT 10SM SCT060 M05/M12 A2980 RMK AO2 T10481116
KOEB 120935Z AUTO 32015G23KT 10SM SCT043 SCT050 BKN060 M04/M11 A2979 RMK AO2 T10381110
KOEB 120915Z AUTO 33015G20KT 10SM BKN041 OVC050 M03/M08 A2978 RMK AO2 T10331081
KOEB 120855Z AUTO 32011G22KT 10SM OVC037 M03/M08 A2978 RMK AO2 T10291080
KOEB 120835Z AUTO 31016G22KT 10SM SCT021 SCT027 OVC035 M02/M07 A2977 RMK AO2 T10231066
KOEB 120815Z AUTO 33014G21KT 10SM SCT013 BKN027 OVC033 M02/M05 A2976 RMK AO2 T10221049
KOEB 120755Z AUTO 33012G19KT 4SM -SN SCT013 BKN029 OVC038 M02/M03 A2976 RMK AO2 T10201035
KOEB 120735Z AUTO 32018G28KT 2 1/2SM -SN BKN011 BKN017 OVC027 M01/M03 A2975 RMK AO2 VIS 2V4 T10151029
KOEB 120715Z AUTO 32010G16KT 5SM -SN OVC011 M01/M02 A2973 RMK AO2 T10101020
KOEB 120655Z AUTO 33010KT 10SM OVC013 M01/M02 A2973 RMK AO2 T10101023
KOEB 120635Z AUTO 34016G20KT 10SM OVC011 M01/M02 A2972 RMK AO2 T10061023
KOEB 120615Z AUTO 33013G23KT 10SM OVC011 00/M02 A2971 RMK AO2 T10051016
KOEB 120555Z AUTO 32010G19KT 10SM BKN009 OVC013 00/M01 A2971 RMK AO2 T10021013 11001 21011 410011031
KOEB 120535Z AUTO 32010G18KT 5SM BR OVC005 00/00 A2970 RMK AO2 T10011003
KOEB 120515Z AUTO 30010KT 2 1/2SM BR OVC003 00/00 A2969 RMK AO2 T10051005
KOEB 120455Z AUTO 30008KT 2 1/2SM BR OVC005 M01/M01 A2968 RMK AO2 T10081009
KOEB 120435Z AUTO 29005KT 4SM BR OVC005 M01/M01 A2969 RMK AO2 T10081010
KOEB 120415Z AUTO 30005KT 4SM BR OVC007 M01/M01 A2968 RMK AO2 T10101010
KOEB 120355Z AUTO 30004KT 3SM BR BKN009 OVC013 M01/M01 A2968 RMK AO2 T10111011
KOEB 120335Z AUTO 31004KT 2SM -SN BKN009 OVC015 M01/M01 A2968 RMK AO2 T10111011
KOEB 120315Z AUTO 00000KT 1 1/4SM -SN OVC016 M01/M01 A2969 RMK AO2 T10101010
KOEB 120255Z AUTO 00000KT 1SM -SN OVC012 M01/M01 A2969 RMK AO2 T10101010
KOEB 120235Z AUTO 00000KT 1 1/4SM -SN OVC013 M01/M01 A2969 RMK AO2 T10101011
KOEB 120215Z AUTO 00000KT 1 1/4SM -SN BKN015 OVC019 M01/M01 A2969 RMK AO2 T10101013
KOEB 120155Z AUTO 3SM -SN BKN020 OVC028 M01/M01 A2970 RMK AO2 T10091015
KOEB 120135Z AUTO 2 1/2SM -SN BKN020 BKN028 OVC042 M01/M02 A2971 RMK AO2 T10071021
KOEB 120115Z AUTO 00000KT 7SM -SN OVC039 00/M02 A2971 RMK AO2 T10041025
KOEB 120055Z AUTO 36003KT 7SM OVC039 00/M02 A2971 RMK AO2 T10051025
KOEB 120035Z AUTO 00000KT 10SM OVC037 00/M03 A2971 RMK AO2 T10021030
KOEB 120015Z AUTO 10SM SCT037 OVC055 00/M03 A2971 RMK AO2 T10041030
KOEB 112355Z AUTO 10SM OVC055 00/M03 A2971 RMK AO2 T10051031 11001 21007
KOEB 112335Z AUTO 16004KT 10SM OVC055 00/M03 A2971 RMK AO2 T10021032
KOEB 112315Z AUTO 10SM BKN055 OVC080 00/M03 A2971 RMK AO2 T10021035
KOEB 112255Z AUTO 15006KT 10SM SCT055 BKN070 OVC090 00/M03 A2971 RMK AO2 T10031035
KOEB 112235Z AUTO 13006KT 7SM OVC070 00/M04 A2971 RMK AO2 T10051036
KOEB 112215Z AUTO 13007KT 10SM OVC070 00/M04 A2971 RMK AO2 T10051036
KOEB 112155Z AUTO 14006KT 10SM OVC070 00/M04 A2972 RMK AO2 T10051038
KOEB 112135Z AUTO 14007KT 10SM OVC070 00/M04 A2973 RMK AO2 T10031040
KOEB 112115Z AUTO 13007KT 7SM OVC070 00/M04 A2973 RMK AO2 T10031040
KOEB 112055Z AUTO 14008KT 10SM OVC070 00/M04 A2974 RMK AO2 T10021039
KOEB 112036Z AUTO 10SM SCT060 BKN070 OVC095 00/M04 A2975 RMK AO2 T10021042
KOEB 112015Z AUTO 10SM SCT044 OVC065 00/M04 A2975 RMK AO2 T10021042
KOEB 111955Z AUTO 16007KT 10SM SCT044 BKN049 OVC065 00/M04 A2976 RMK AO2 T10041045
KOEB 111935Z AUTO 17007KT 10SM SCT065 BKN075 OVC085 00/M05 A2978 RMK AO2 T10041047
KOEB 111855Z AUTO 17009KT 10SM SCT020 OVC065 00/M05 A2980 RMK AO2 T10011047
KOEB 111835Z AUTO 18005KT 10SM SCT020 OVC065 00/M05 A2982 RMK AO2 T10051047
KOEB 111815Z AUTO 18005KT 10SM BKN020 OVC065 M01/M05 A2983 RMK AO2 T10061049
KOEB 111755Z AUTO 19006KT 10SM OVC020 M01/M05 A2984 RMK AO2 T10071048 11007 21028
KOEB 111735Z AUTO 18004KT 10SM OVC020 M01/M05 A2986 RMK AO2 T10111049
KOEB 111715Z AUTO 18006KT 10SM BKN018 OVC050 M01/M05 A2988 RMK AO2 T10121047
KOEB 111655Z AUTO 20005KT 10SM SCT018 OVC050 M01/M04 A2990 RMK AO2 T10151045
KOEB 111635Z AUTO 17005KT 10SM SCT010 OVC050 M02/M04 A2991 RMK AO2 T10161041
KOEB 111615Z AUTO 20005KT 10SM SCT010 OVC050 M02/M04 A2993 RMK AO2 T10201039
KOEB 111555Z AUTO 19004KT 4SM BR SCT010 SCT020 OVC050 M02/M04 A2995 RMK AO2 T10231037
KOEB 111535Z AUTO 19005KT 1 1/2SM -SN SCT010 BKN015 OVC029 M02/M04 A2995 RMK AO2 T10251036
KOEB 111515Z AUTO 19004KT 1SM -SN BKN010 OVC015 M02/M04 A2996 RMK AO2 T10251037
KOEB 111455Z AUTO 21005KT 1 3/4SM -SN BKN015 BKN023 OVC035 M02/M04 A2996 RMK AO2 T10251041
KOEB 111435Z AUTO 20005KT 4SM -SN SCT035 BKN047 OVC080 M03/M04 A2996 RMK AO2 T10261043
KOEB 111415Z AUTO 18005KT 5SM -SN SCT029 SCT035 OVC080 M03/M04 A2996 RMK AO2 T10271043
KOEB 111355Z AUTO 19005KT 1 3/4SM -SN SCT021 BKN029 OVC035 M03/M04 A2996 RMK AO2 T10271043
KOEB 111335Z AUTO 18006KT 1 3/4SM -SN BKN019 OVC029 M03/M05 A2998 RMK AO2 T10271046
KOEB 111315Z AUTO 19004KT 5SM -SN BKN030 OVC039 M02/M05 A2999 RMK AO2 T10251052
KOEB 111255Z AUTO 20004KT 10SM OVC028 M02/M05 A3000 RMK AO2 T10251051
KOEB 111235Z AUTO 20004KT 10SM OVC028 M02/M05 A3001 RMK AO2 T10251050
KOEB 111215Z AUTO 19004KT 10SM OVC030 M02/M05 A3000 RMK AO2 T10251050
KOEB 111155Z AUTO 20003KT 10SM OVC030 M03/M05 A3001 RMK AO2 T10261050 11025 21031
KOEB 111135Z AUTO 16004KT 10SM OVC030 M03/M05 A2999 RMK AO2 T10261050
KOEB 111115Z AUTO 19003KT 10SM OVC028 M03/M05 A3000 RMK AO2 T10261050
KOEB 111055Z AUTO 20003KT 10SM OVC028 M03/M05 A3000 RMK AO2 T10271050
KOEB 111035Z AUTO 16003KT 10SM OVC028 M03/M05 A2998 RMK AO2 T10281050
KOEB 111015Z AUTO 16004KT 10SM OVC028 M03/M05 A2999 RMK AO2 T10301050
KOEB 110955Z AUTO 16003KT 10SM OVC028 M03/M05 A3000 RMK AO2 T10301050
KOEB 110936Z AUTO 16003KT 10SM OVC028 M03/M05 A3000 RMK AO2 T10301050
KOEB 110915Z AUTO 00000KT 10SM OVC030 M03/M05 A3001 RMK AO2 T10311050
KOEB 110855Z AUTO 00000KT 10SM OVC030 M03/M05 A3002 RMK AO2 T10301051
KOEB 110835Z AUTO 25003KT 10SM OVC030 M03/M05 A3002 RMK AO2 T10281051
KOEB 110815Z AUTO 26004KT 10SM OVC030 M03/M05 A3002 RMK AO2 T10301050
KOEB 110755Z AUTO 26004KT 10SM OVC032 M03/M05 A3002 RMK AO2 T10281052
KOEB 110735Z AUTO 24003KT 10SM OVC032 M03/M05 A3001 RMK AO2 T10281053
KOEB 110715Z AUTO 24004KT 10SM OVC030 M03/M05 A3001 RMK AO2 T10291052
KOEB 110655Z AUTO 00000KT 10SM OVC030 M03/M05 A3000 RMK AO2 T10301053
KOEB 110635Z AUTO 26003KT 10SM OVC030 M03/M05 A3001 RMK AO2 T10271053
KOEB 110615Z AUTO 26005KT 10SM OVC032 M03/M05 A3002 RMK AO2 T10271053
KOEB 110555Z AUTO 27003KT 10SM OVC036 M03/M05 A3001 RMK AO2 T10271053 11013 21027 410131065
KOEB 110535Z AUTO 28004KT 10SM OVC036 M03/M05 A3002 RMK AO2 T10261052
KOEB 110515Z AUTO 28004KT 10SM OVC036 M02/M05 A3001 RMK AO2 T10251054
KOEB 110455Z AUTO 29003KT 10SM OVC034 M02/M05 A3001 RMK AO2 T10251055
KOEB 110435Z AUTO 30004KT 10SM OVC032 M02/M06 A3001 RMK AO2 T10221056
KOEB 110415Z AUTO 32004KT 10SM OVC030 M02/M06 A3000 RMK AO2 T10221056
KOEB 110355Z AUTO 33004KT 10SM OVC025 M02/M05 A3000 RMK AO2 T10221052
KOEB 110335Z AUTO 33005KT 10SM BKN020 OVC025 M02/M05 A3000 RMK AO2 T10221049
KOEB 110315Z AUTO 34011KT 10SM OVC016 M02/M04 A2999 RMK AO2 T10211045
KOEB 110255Z AUTO 34009G15KT 10SM OVC012 M02/M04 A2999 RMK AO2 T10201040
KOEB 110235Z AUTO 34010G15KT 10SM BKN014 OVC021 M01/M03 A2998 RMK AO2 T10131033
KOEB 110215Z AUTO 29006KT 10SM OVC018 M01/M03 A2997 RMK AO2 T10131032